sensor_id;sensor_type;location;lat;lon;timestamp;P1;durP1;ratioP1;P2;durP2;ratioP2
21114;SDS011;10715;48.546;9.896;2023-02-28T00:00:31;3.03;;;2.33;;
21114;SDS011;10715;48.546;9.896;2023-02-28T00:02:57;2.53;;;1.30;;
21114;SDS011;10715;48.546;9.896;2023-02-28T00:05:23;6.87;;;2.37;;
21114;SDS011;10715;48.546;9.896;2023-02-28T00:07:50;3.60;;;3.30;;
21114;SDS011;10715;48.546;9.896;2023-02-28T00:10:18;5.37;;;2.40;;
21114;SDS011;10715;48.546;9.896;2023-02-28T00:12:51;9.40;;;2.10;;
21114;SDS011;10715;48.546;9.896;2023-02-28T00:15:18;1.67;;;1.57;;
21114;SDS011;10715;48.546;9.896;2023-02-28T00:17:44;3.27;;;1.93;;
21114;SDS011;10715;48.546;9.896;2023-02-28T00:20:11;3.50;;;1.90;;
21114;SDS011;10715;48.546;9.896;2023-02-28T00:22:39;5.03;;;2.03;;
21114;SDS011;10715;48.546;9.896;2023-02-28T00:25:10;3.30;;;2.87;;
21114;SDS011;10715;48.546;9.896;2023-02-28T00:27:39;4.13;;;2.27;;
21114;SDS011;10715;48.546;9.896;2023-02-28T00:30:06;3.20;;;2.40;;
21114;SDS011;10715;48.546;9.896;2023-02-28T00:32:35;4.67;;;2.47;;
21114;SDS011;10715;48.546;9.896;2023-02-28T00:35:01;2.53;;;2.37;;
21114;SDS011;10715;48.546;9.896;2023-02-28T00:37:27;2.00;;;1.70;;
21114;SDS011;10715;48.546;9.896;2023-02-28T00:39:53;5.33;;;2.67;;
21114;SDS011;10715;48.546;9.896;2023-02-28T00:42:18;6.10;;;3.50;;
21114;SDS011;10715;48.546;9.896;2023-02-28T00:44:44;8.80;;;4.13;;
21114;SDS011;10715;48.546;9.896;2023-02-28T00:47:10;8.67;;;4.97;;
21114;SDS011;10715;48.546;9.896;2023-02-28T00:49:35;6.23;;;3.23;;
21114;SDS011;10715;48.546;9.896;2023-02-28T00:52:01;7.03;;;3.30;;
21114;SDS011;10715;48.546;9.896;2023-02-28T00:54:27;5.33;;;2.50;;
21114;SDS011;10715;48.546;9.896;2023-02-28T00:56:53;2.60;;;2.03;;
21114;SDS011;10715;48.546;9.896;2023-02-28T00:59:19;8.97;;;4.80;;
21114;SDS011;10715;48.546;9.896;2023-02-28T01:01:45;5.13;;;3.60;;
21114;SDS011;10715;48.546;9.896;2023-02-28T01:04:11;4.33;;;1.83;;
21114;SDS011;10715;48.546;9.896;2023-02-28T01:06:37;3.30;;;1.70;;
21114;SDS011;10715;48.546;9.896;2023-02-28T01:09:04;2.40;;;2.20;;
21114;SDS011;10715;48.546;9.896;2023-02-28T01:11:31;5.20;;;3.07;;
21114;SDS011;10715;48.546;9.896;2023-02-28T01:13:58;9.50;;;4.00;;
21114;SDS011;10715;48.546;9.896;2023-02-28T01:16:24;2.30;;;2.10;;
21114;SDS011;10715;48.546;9.896;2023-02-28T01:18:50;4.10;;;2.43;;
21114;SDS011;10715;48.546;9.896;2023-02-28T01:21:16;3.00;;;2.30;;
21114;SDS011;10715;48.546;9.896;2023-02-28T01:23:43;3.50;;;1.93;;
21114;SDS011;10715;48.546;9.896;2023-02-28T01:26:18;5.40;;;2.80;;
21114;SDS011;10715;48.546;9.896;2023-02-28T01:28:45;3.07;;;2.77;;
21114;SDS011;10715;48.546;9.896;2023-02-28T01:31:11;3.37;;;2.53;;
21114;SDS011;10715;48.546;9.896;2023-02-28T01:33:37;2.50;;;2.30;;
21114;SDS011;10715;48.546;9.896;2023-02-28T01:36:22;1.80;;;1.70;;
21114;SDS011;10715;48.546;9.896;2023-02-28T01:38:49;3.70;;;2.30;;
21114;SDS011;10715;48.546;9.896;2023-02-28T01:41:17;3.80;;;3.07;;
21114;SDS011;10715;48.546;9.896;2023-02-28T01:46:08;3.60;;;1.93;;
21114;SDS011;10715;48.546;9.896;2023-02-28T01:48:36;3.53;;;2.30;;
21114;SDS011;10715;48.546;9.896;2023-02-28T01:51:05;2.07;;;1.70;;
21114;SDS011;10715;48.546;9.896;2023-02-28T01:53:37;2.00;;;1.70;;
21114;SDS011;10715;48.546;9.896;2023-02-28T01:56:08;3.00;;;2.70;;
21114;SDS011;10715;48.546;9.896;2023-02-28T01:58:37;2.77;;;2.10;;
21114;SDS011;10715;48.546;9.896;2023-02-28T02:01:03;1.97;;;1.53;;
21114;SDS011;10715;48.546;9.896;2023-02-28T02:03:29;1.87;;;1.30;;
21114;SDS011;10715;48.546;9.896;2023-02-28T02:05:56;2.77;;;2.57;;
21114;SDS011;10715;48.546;9.896;2023-02-28T02:08:26;4.90;;;2.20;;
21114;SDS011;10715;48.546;9.896;2023-02-28T02:10:57;3.23;;;2.37;;
21114;SDS011;10715;48.546;9.896;2023-02-28T02:13:28;3.87;;;2.93;;
21114;SDS011;10715;48.546;9.896;2023-02-28T02:36:48;3.00;;;2.70;;
21114;SDS011;10715;48.546;9.896;2023-02-28T02:39:37;3.13;;;2.50;;
21114;SDS011;10715;48.546;9.896;2023-02-28T02:42:18;2.80;;;2.60;;
21114;SDS011;10715;48.546;9.896;2023-02-28T02:44:55;2.60;;;2.40;;
21114;SDS011;10715;48.546;9.896;2023-02-28T02:47:33;2.80;;;2.30;;
21114;SDS011;10715;48.546;9.896;2023-02-28T02:50:02;4.20;;;3.17;;
21114;SDS011;10715;48.546;9.896;2023-02-28T02:52:36;2.40;;;1.70;;
21114;SDS011;10715;48.546;9.896;2023-02-28T02:55:07;3.53;;;3.23;;
21114;SDS011;10715;48.546;9.896;2023-02-28T02:57:38;2.80;;;2.27;;
21114;SDS011;10715;48.546;9.896;2023-02-28T03:00:27;4.20;;;2.17;;
21114;SDS011;10715;48.546;9.896;2023-02-28T03:02:57;4.03;;;1.60;;
21114;SDS011;10715;48.546;9.896;2023-02-28T03:05:29;2.47;;;2.27;;
21114;SDS011;10715;48.546;9.896;2023-02-28T03:08:02;2.43;;;2.23;;
21114;SDS011;10715;48.546;9.896;2023-02-28T03:10:35;3.93;;;2.30;;
21114;SDS011;10715;48.546;9.896;2023-02-28T03:15:44;3.30;;;2.80;;
21114;SDS011;10715;48.546;9.896;2023-02-28T03:26:33;3.00;;;2.37;;
21114;SDS011;10715;48.546;9.896;2023-02-28T03:31:44;3.30;;;2.53;;
21114;SDS011;10715;48.546;9.896;2023-02-28T03:34:24;9.00;;;2.60;;
21114;SDS011;10715;48.546;9.896;2023-02-28T03:37:08;3.30;;;3.00;;
21114;SDS011;10715;48.546;9.896;2023-02-28T03:39:49;7.13;;;2.80;;
21114;SDS011;10715;48.546;9.896;2023-02-28T03:42:27;4.20;;;2.20;;
21114;SDS011;10715;48.546;9.896;2023-02-28T03:44:56;2.60;;;2.40;;
21114;SDS011;10715;48.546;9.896;2023-02-28T03:53:32;4.27;;;2.73;;
21114;SDS011;10715;48.546;9.896;2023-02-28T03:55:47;2.70;;;2.50;;
21114;SDS011;10715;48.546;9.896;2023-02-28T03:58:18;4.23;;;2.40;;
21114;SDS011;10715;48.546;9.896;2023-02-28T04:00:53;2.97;;;2.73;;
21114;SDS011;10715;48.546;9.896;2023-02-28T04:03:33;7.50;;;3.70;;
21114;SDS011;10715;48.546;9.896;2023-02-28T04:06:00;3.20;;;2.83;;
21114;SDS011;10715;48.546;9.896;2023-02-28T04:08:27;2.80;;;2.60;;
21114;SDS011;10715;48.546;9.896;2023-02-28T04:10:54;3.13;;;1.97;;
21114;SDS011;10715;48.546;9.896;2023-02-28T04:13:24;2.80;;;2.47;;
21114;SDS011;10715;48.546;9.896;2023-02-28T04:15:49;4.20;;;3.63;;
21114;SDS011;10715;48.546;9.896;2023-02-28T04:18:15;3.30;;;3.00;;
21114;SDS011;10715;48.546;9.896;2023-02-28T04:20:41;8.03;;;3.83;;
21114;SDS011;10715;48.546;9.896;2023-02-28T04:23:06;7.20;;;4.23;;
21114;SDS011;10715;48.546;9.896;2023-02-28T04:25:32;4.40;;;4.00;;
21114;SDS011;10715;48.546;9.896;2023-02-28T04:27:57;5.57;;;3.63;;
21114;SDS011;10715;48.546;9.896;2023-02-28T04:30:23;3.60;;;3.30;;
21114;SDS011;10715;48.546;9.896;2023-02-28T04:32:49;3.00;;;2.77;;
21114;SDS011;10715;48.546;9.896;2023-02-28T04:35:14;4.20;;;3.80;;
21114;SDS011;10715;48.546;9.896;2023-02-28T04:37:40;4.77;;;3.17;;
21114;SDS011;10715;48.546;9.896;2023-02-28T04:40:06;3.80;;;3.50;;
21114;SDS011;10715;48.546;9.896;2023-02-28T04:42:32;7.00;;;5.20;;
21114;SDS011;10715;48.546;9.896;2023-02-28T04:45:03;9.43;;;3.67;;
21114;SDS011;10715;48.546;9.896;2023-02-28T04:47:30;5.70;;;3.63;;
21114;SDS011;10715;48.546;9.896;2023-02-28T04:49:56;5.67;;;3.67;;
21114;SDS011;10715;48.546;9.896;2023-02-28T04:52:21;6.70;;;3.50;;
21114;SDS011;10715;48.546;9.896;2023-02-28T04:54:47;3.50;;;3.20;;
21114;SDS011;10715;48.546;9.896;2023-02-28T04:57:13;4.77;;;3.23;;
21114;SDS011;10715;48.546;9.896;2023-02-28T04:59:39;7.00;;;4.00;;
21114;SDS011;10715;48.546;9.896;2023-02-28T05:02:04;4.83;;;4.20;;
21114;SDS011;10715;48.546;9.896;2023-02-28T05:04:34;4.20;;;3.80;;
21114;SDS011;10715;48.546;9.896;2023-02-28T05:07:00;7.03;;;5.00;;
21114;SDS011;10715;48.546;9.896;2023-02-28T05:09:27;7.90;;;4.63;;
21114;SDS011;10715;48.546;9.896;2023-02-28T05:11:54;6.10;;;4.27;;
21114;SDS011;10715;48.546;9.896;2023-02-28T05:14:20;6.53;;;4.47;;
21114;SDS011;10715;48.546;9.896;2023-02-28T05:16:46;4.27;;;3.93;;
21114;SDS011;10715;48.546;9.896;2023-02-28T05:19:11;5.90;;;4.43;;
21114;SDS011;10715;48.546;9.896;2023-02-28T05:21:38;8.40;;;5.33;;
21114;SDS011;10715;48.546;9.896;2023-02-28T05:24:24;11.77;;;6.13;;
21114;SDS011;10715;48.546;9.896;2023-02-28T05:26:51;7.37;;;4.80;;
21114;SDS011;10715;48.546;9.896;2023-02-28T05:29:18;17.10;;;8.07;;
21114;SDS011;10715;48.546;9.896;2023-02-28T05:31:44;8.57;;;6.87;;
21114;SDS011;10715;48.546;9.896;2023-02-28T05:34:10;12.53;;;6.90;;
21114;SDS011;10715;48.546;9.896;2023-02-28T05:36:37;4.60;;;4.17;;
21114;SDS011;10715;48.546;9.896;2023-02-28T05:39:05;7.00;;;4.20;;
21114;SDS011;10715;48.546;9.896;2023-02-28T05:41:32;16.07;;;11.00;;
21114;SDS011;10715;48.546;9.896;2023-02-28T05:43:58;7.77;;;7.07;;
21114;SDS011;10715;48.546;9.896;2023-02-28T05:46:24;5.30;;;4.80;;
21114;SDS011;10715;48.546;9.896;2023-02-28T05:48:50;9.70;;;6.17;;
21114;SDS011;10715;48.546;9.896;2023-02-28T05:51:16;9.63;;;4.33;;
21114;SDS011;10715;48.546;9.896;2023-02-28T05:53:42;8.57;;;5.70;;
21114;SDS011;10715;48.546;9.896;2023-02-28T05:56:08;8.13;;;5.70;;
21114;SDS011;10715;48.546;9.896;2023-02-28T05:58:34;11.10;;;5.50;;
21114;SDS011;10715;48.546;9.896;2023-02-28T06:01:00;13.40;;;7.63;;
21114;SDS011;10715;48.546;9.896;2023-02-28T06:03:44;10.67;;;7.77;;
21114;SDS011;10715;48.546;9.896;2023-02-28T06:06:10;7.80;;;5.53;;
21114;SDS011;10715;48.546;9.896;2023-02-28T06:08:35;6.97;;;4.60;;
21114;SDS011;10715;48.546;9.896;2023-02-28T06:11:04;7.53;;;5.13;;
21114;SDS011;10715;48.546;9.896;2023-02-28T06:13:31;9.20;;;6.40;;
21114;SDS011;10715;48.546;9.896;2023-02-28T06:16:00;9.77;;;7.20;;
21114;SDS011;10715;48.546;9.896;2023-02-28T06:18:26;9.10;;;6.20;;
21114;SDS011;10715;48.546;9.896;2023-02-28T06:20:55;7.03;;;6.10;;
21114;SDS011;10715;48.546;9.896;2023-02-28T06:23:21;8.90;;;6.13;;
21114;SDS011;10715;48.546;9.896;2023-02-28T06:25:47;5.83;;;5.23;;
21114;SDS011;10715;48.546;9.896;2023-02-28T06:28:14;10.30;;;6.10;;
21114;SDS011;10715;48.546;9.896;2023-02-28T06:30:40;9.23;;;5.23;;
21114;SDS011;10715;48.546;9.896;2023-02-28T06:33:05;12.43;;;6.80;;
21114;SDS011;10715;48.546;9.896;2023-02-28T06:35:31;10.90;;;5.83;;
21114;SDS011;10715;48.546;9.896;2023-02-28T06:37:57;12.00;;;8.87;;
21114;SDS011;10715;48.546;9.896;2023-02-28T06:40:23;7.37;;;5.07;;
21114;SDS011;10715;48.546;9.896;2023-02-28T06:42:48;6.17;;;5.10;;
21114;SDS011;10715;48.546;9.896;2023-02-28T06:45:14;12.47;;;6.47;;
21114;SDS011;10715;48.546;9.896;2023-02-28T06:47:40;9.10;;;6.40;;
21114;SDS011;10715;48.546;9.896;2023-02-28T06:50:07;15.50;;;8.53;;
21114;SDS011;10715;48.546;9.896;2023-02-28T06:52:37;11.23;;;8.63;;
21114;SDS011;10715;48.546;9.896;2023-02-28T06:55:06;16.97;;;9.90;;
21114;SDS011;10715;48.546;9.896;2023-02-28T06:57:33;9.90;;;6.17;;
21114;SDS011;10715;48.546;9.896;2023-02-28T07:00:00;13.90;;;9.60;;
21114;SDS011;10715;48.546;9.896;2023-02-28T07:02:29;19.83;;;7.10;;
21114;SDS011;10715;48.546;9.896;2023-02-28T07:04:56;10.53;;;5.03;;
21114;SDS011;10715;48.546;9.896;2023-02-28T07:07:22;14.57;;;6.10;;
21114;SDS011;10715;48.546;9.896;2023-02-28T07:09:47;10.73;;;7.00;;
21114;SDS011;10715;48.546;9.896;2023-02-28T07:12:13;10.00;;;6.80;;
21114;SDS011;10715;48.546;9.896;2023-02-28T07:14:39;9.73;;;6.70;;
21114;SDS011;10715;48.546;9.896;2023-02-28T07:17:06;9.13;;;6.70;;
21114;SDS011;10715;48.546;9.896;2023-02-28T07:19:40;9.80;;;5.60;;
21114;SDS011;10715;48.546;9.896;2023-02-28T07:22:06;6.53;;;5.77;;
21114;SDS011;10715;48.546;9.896;2023-02-28T07:24:32;10.60;;;6.27;;
21114;SDS011;10715;48.546;9.896;2023-02-28T07:26:58;6.80;;;5.33;;
21114;SDS011;10715;48.546;9.896;2023-02-28T07:29:24;8.13;;;5.80;;
21114;SDS011;10715;48.546;9.896;2023-02-28T07:31:50;6.37;;;5.50;;
21114;SDS011;10715;48.546;9.896;2023-02-28T07:34:18;13.73;;;6.80;;
21114;SDS011;10715;48.546;9.896;2023-02-28T07:36:44;12.33;;;6.57;;
21114;SDS011;10715;48.546;9.896;2023-02-28T07:39:10;14.40;;;7.23;;
21114;SDS011;10715;48.546;9.896;2023-02-28T07:41:35;11.13;;;6.20;;
21114;SDS011;10715;48.546;9.896;2023-02-28T07:44:08;10.20;;;5.30;;
21114;SDS011;10715;48.546;9.896;2023-02-28T07:46:36;13.03;;;7.23;;
21114;SDS011;10715;48.546;9.896;2023-02-28T07:49:03;13.03;;;7.10;;
21114;SDS011;10715;48.546;9.896;2023-02-28T07:51:29;8.30;;;6.73;;
21114;SDS011;10715;48.546;9.896;2023-02-28T07:53:55;11.57;;;6.43;;
21114;SDS011;10715;48.546;9.896;2023-02-28T07:56:21;12.80;;;7.20;;
21114;SDS011;10715;48.546;9.896;2023-02-28T07:58:47;6.53;;;5.30;;
21114;SDS011;10715;48.546;9.896;2023-02-28T08:01:13;7.07;;;6.07;;
21114;SDS011;10715;48.546;9.896;2023-02-28T08:03:39;11.43;;;6.00;;
21114;SDS011;10715;48.546;9.896;2023-02-28T08:06:06;12.23;;;7.20;;
21114;SDS011;10715;48.546;9.896;2023-02-28T08:08:33;14.67;;;6.80;;
21114;SDS011;10715;48.546;9.896;2023-02-28T08:11:00;9.70;;;7.70;;
21114;SDS011;10715;48.546;9.896;2023-02-28T08:13:27;8.00;;;5.53;;
21114;SDS011;10715;48.546;9.896;2023-02-28T08:15:54;12.30;;;6.60;;
21114;SDS011;10715;48.546;9.896;2023-02-28T08:18:20;8.23;;;5.80;;
21114;SDS011;10715;48.546;9.896;2023-02-28T08:20:47;8.10;;;6.50;;
21114;SDS011;10715;48.546;9.896;2023-02-28T08:23:13;8.77;;;5.77;;
21114;SDS011;10715;48.546;9.896;2023-02-28T08:25:39;9.47;;;6.73;;
21114;SDS011;10715;48.546;9.896;2023-02-28T08:28:05;9.03;;;6.60;;
21114;SDS011;10715;48.546;9.896;2023-02-28T08:30:31;9.63;;;6.20;;
21114;SDS011;10715;48.546;9.896;2023-02-28T08:32:56;11.53;;;6.97;;
21114;SDS011;10715;48.546;9.896;2023-02-28T08:35:22;11.40;;;6.40;;
21114;SDS011;10715;48.546;9.896;2023-02-28T08:37:48;10.07;;;6.30;;
21114;SDS011;10715;48.546;9.896;2023-02-28T08:40:14;12.10;;;6.97;;
21114;SDS011;10715;48.546;9.896;2023-02-28T08:42:46;8.03;;;5.40;;
21114;SDS011;10715;48.546;9.896;2023-02-28T08:45:12;11.43;;;7.63;;
21114;SDS011;10715;48.546;9.896;2023-02-28T08:47:39;13.40;;;6.70;;
21114;SDS011;10715;48.546;9.896;2023-02-28T08:50:05;9.10;;;6.37;;
21114;SDS011;10715;48.546;9.896;2023-02-28T08:52:32;10.40;;;5.90;;
21114;SDS011;10715;48.546;9.896;2023-02-28T08:54:57;9.03;;;7.43;;
21114;SDS011;10715;48.546;9.896;2023-02-28T08:57:23;8.67;;;6.00;;
21114;SDS011;10715;48.546;9.896;2023-02-28T08:59:51;9.67;;;5.30;;
21114;SDS011;10715;48.546;9.896;2023-02-28T09:02:17;9.30;;;7.33;;
21114;SDS011;10715;48.546;9.896;2023-02-28T09:04:43;8.77;;;7.00;;
21114;SDS011;10715;48.546;9.896;2023-02-28T09:07:10;10.20;;;7.20;;
21114;SDS011;10715;48.546;9.896;2023-02-28T09:09:36;7.47;;;6.03;;
21114;SDS011;10715;48.546;9.896;2023-02-28T09:12:02;12.00;;;6.80;;
21114;SDS011;10715;48.546;9.896;2023-02-28T09:14:28;21.00;;;8.27;;
21114;SDS011;10715;48.546;9.896;2023-02-28T09:16:54;7.47;;;6.17;;
21114;SDS011;10715;48.546;9.896;2023-02-28T09:19:20;12.93;;;6.83;;
21114;SDS011;10715;48.546;9.896;2023-02-28T09:21:45;13.70;;;7.67;;
21114;SDS011;10715;48.546;9.896;2023-02-28T09:24:11;9.77;;;7.17;;
21114;SDS011;10715;48.546;9.896;2023-02-28T09:26:39;8.20;;;7.00;;
21114;SDS011;10715;48.546;9.896;2023-02-28T09:29:05;14.53;;;7.13;;
21114;SDS011;10715;48.546;9.896;2023-02-28T09:31:31;12.87;;;6.30;;
21114;SDS011;10715;48.546;9.896;2023-02-28T09:33:57;7.30;;;5.73;;
21114;SDS011;10715;48.546;9.896;2023-02-28T09:36:24;8.40;;;7.40;;
21114;SDS011;10715;48.546;9.896;2023-02-28T09:38:51;10.20;;;7.83;;
21114;SDS011;10715;48.546;9.896;2023-02-28T09:41:37;11.67;;;6.83;;
21114;SDS011;10715;48.546;9.896;2023-02-28T09:44:13;12.37;;;7.00;;
21114;SDS011;10715;48.546;9.896;2023-02-28T09:46:47;8.13;;;7.43;;
21114;SDS011;10715;48.546;9.896;2023-02-28T09:49:18;12.97;;;7.30;;
21114;SDS011;10715;48.546;9.896;2023-02-28T09:54:37;12.57;;;7.47;;
21114;SDS011;10715;48.546;9.896;2023-02-28T09:57:21;10.77;;;7.83;;
21114;SDS011;10715;48.546;9.896;2023-02-28T09:59:55;11.70;;;6.47;;
21114;SDS011;10715;48.546;9.896;2023-02-28T10:05:52;11.53;;;7.93;;
21114;SDS011;10715;48.546;9.896;2023-02-28T10:08:28;9.43;;;6.83;;
21114;SDS011;10715;48.546;9.896;2023-02-28T10:10:58;12.67;;;7.30;;
21114;SDS011;10715;48.546;9.896;2023-02-28T10:13:36;11.83;;;8.50;;
21114;SDS011;10715;48.546;9.896;2023-02-28T10:16:16;23.30;;;10.10;;
21114;SDS011;10715;48.546;9.896;2023-02-28T10:19:09;11.93;;;8.20;;
21114;SDS011;10715;48.546;9.896;2023-02-28T10:21:46;14.07;;;8.77;;
21114;SDS011;10715;48.546;9.896;2023-02-28T10:26:45;14.30;;;9.30;;
21114;SDS011;10715;48.546;9.896;2023-02-28T10:29:12;18.63;;;8.10;;
21114;SDS011;10715;48.546;9.896;2023-02-28T10:31:38;11.63;;;10.63;;
21114;SDS011;10715;48.546;9.896;2023-02-28T10:34:05;11.00;;;7.07;;
21114;SDS011;10715;48.546;9.896;2023-02-28T10:36:32;13.00;;;8.53;;
21114;SDS011;10715;48.546;9.896;2023-02-28T10:38:58;8.67;;;7.50;;
21114;SDS011;10715;48.546;9.896;2023-02-28T10:44:20;12.50;;;7.90;;
21114;SDS011;10715;48.546;9.896;2023-02-28T10:46:47;11.00;;;8.07;;
21114;SDS011;10715;48.546;9.896;2023-02-28T10:49:19;10.10;;;7.23;;
21114;SDS011;10715;48.546;9.896;2023-02-28T10:51:52;15.17;;;8.80;;
21114;SDS011;10715;48.546;9.896;2023-02-28T10:54:29;15.10;;;9.27;;
21114;SDS011;10715;48.546;9.896;2023-02-28T10:57:32;13.70;;;7.67;;
21114;SDS011;10715;48.546;9.896;2023-02-28T10:59:51;13.03;;;7.77;;
21114;SDS011;10715;48.546;9.896;2023-02-28T11:02:33;12.03;;;8.20;;
21114;SDS011;10715;48.546;9.896;2023-02-28T11:05:01;11.03;;;8.40;;
21114;SDS011;10715;48.546;9.896;2023-02-28T11:07:27;15.17;;;8.43;;
21114;SDS011;10715;48.546;9.896;2023-02-28T11:09:56;12.60;;;7.13;;
21114;SDS011;10715;48.546;9.896;2023-02-28T11:12:34;13.20;;;7.33;;
21114;SDS011;10715;48.546;9.896;2023-02-28T11:15:18;20.20;;;8.50;;
21114;SDS011;10715;48.546;9.896;2023-02-28T11:17:57;14.70;;;8.33;;
21114;SDS011;10715;48.546;9.896;2023-02-28T11:20:42;13.90;;;8.73;;
21114;SDS011;10715;48.546;9.896;2023-02-28T11:23:15;11.83;;;7.77;;
21114;SDS011;10715;48.546;9.896;2023-02-28T11:25:47;9.60;;;8.00;;
21114;SDS011;10715;48.546;9.896;2023-02-28T11:28:35;10.90;;;7.90;;
21114;SDS011;10715;48.546;9.896;2023-02-28T11:33:44;16.40;;;8.23;;
21114;SDS011;10715;48.546;9.896;2023-02-28T11:38:41;15.40;;;8.10;;
21114;SDS011;10715;48.546;9.896;2023-02-28T11:41:12;12.33;;;8.77;;
21114;SDS011;10715;48.546;9.896;2023-02-28T11:44:05;11.13;;;7.97;;
21114;SDS011;10715;48.546;9.896;2023-02-28T11:54:59;13.00;;;6.83;;
21114;SDS011;10715;48.546;9.896;2023-02-28T12:00:56;10.77;;;7.30;;
21114;SDS011;10715;48.546;9.896;2023-02-28T12:22:05;11.40;;;6.70;;
21114;SDS011;10715;48.546;9.896;2023-02-28T12:27:37;11.77;;;8.83;;
21114;SDS011;10715;48.546;9.896;2023-02-28T12:32:45;15.53;;;7.83;;
21114;SDS011;10715;48.546;9.896;2023-02-28T12:35:19;10.40;;;7.20;;
21114;SDS011;10715;48.546;9.896;2023-02-28T12:38:02;17.27;;;8.67;;
21114;SDS011;10715;48.546;9.896;2023-02-28T12:43:16;16.63;;;8.53;;
21114;SDS011;10715;48.546;9.896;2023-02-28T12:48:15;13.17;;;9.47;;
21114;SDS011;10715;48.546;9.896;2023-02-28T12:50:54;11.90;;;8.40;;
21114;SDS011;10715;48.546;9.896;2023-02-28T12:59:31;7.40;;;6.30;;
21114;SDS011;10715;48.546;9.896;2023-02-28T13:01:52;15.70;;;6.90;;
21114;SDS011;10715;48.546;9.896;2023-02-28T13:09:38;11.30;;;7.83;;
21114;SDS011;10715;48.546;9.896;2023-02-28T13:12:14;9.67;;;6.90;;
21114;SDS011;10715;48.546;9.896;2023-02-28T13:14:41;11.23;;;7.37;;
21114;SDS011;10715;48.546;9.896;2023-02-28T13:22:20;10.50;;;6.57;;
21114;SDS011;10715;48.546;9.896;2023-02-28T13:27:48;10.07;;;6.07;;
21114;SDS011;10715;48.546;9.896;2023-02-28T13:33:23;19.43;;;7.27;;
21114;SDS011;10715;48.546;9.896;2023-02-28T13:36:09;13.73;;;6.87;;
21114;SDS011;10715;48.546;9.896;2023-02-28T13:38:44;14.80;;;8.20;;
21114;SDS011;10715;48.546;9.896;2023-02-28T13:49:33;16.93;;;8.80;;
21114;SDS011;10715;48.546;9.896;2023-02-28T14:05:38;11.03;;;6.10;;
21114;SDS011;10715;48.546;9.896;2023-02-28T14:08:06;14.57;;;7.07;;
21114;SDS011;10715;48.546;9.896;2023-02-28T14:10:47;13.67;;;8.30;;
21114;SDS011;10715;48.546;9.896;2023-02-28T14:15:56;15.07;;;8.10;;
21114;SDS011;10715;48.546;9.896;2023-02-28T14:18:34;9.40;;;7.10;;
21114;SDS011;10715;48.546;9.896;2023-02-28T14:21:08;16.10;;;9.27;;
21114;SDS011;10715;48.546;9.896;2023-02-28T14:37:46;16.63;;;7.90;;
21114;SDS011;10715;48.546;9.896;2023-02-28T14:40:32;11.07;;;7.53;;
21114;SDS011;10715;48.546;9.896;2023-02-28T14:43:04;8.27;;;6.63;;
21114;SDS011;10715;48.546;9.896;2023-02-28T14:45:32;7.07;;;6.27;;
21114;SDS011;10715;48.546;9.896;2023-02-28T14:48:02;11.93;;;6.03;;
21114;SDS011;10715;48.546;9.896;2023-02-28T14:50:35;12.13;;;5.73;;
21114;SDS011;10715;48.546;9.896;2023-02-28T14:53:02;13.97;;;6.63;;
21114;SDS011;10715;48.546;9.896;2023-02-28T14:55:30;8.13;;;5.60;;
21114;SDS011;10715;48.546;9.896;2023-02-28T14:58:04;8.67;;;6.30;;
21114;SDS011;10715;48.546;9.896;2023-02-28T15:02:59;10.83;;;6.40;;
21114;SDS011;10715;48.546;9.896;2023-02-28T15:05:30;13.73;;;6.40;;
21114;SDS011;10715;48.546;9.896;2023-02-28T15:08:04;7.70;;;5.33;;
21114;SDS011;10715;48.546;9.896;2023-02-28T15:10:42;8.80;;;6.10;;
21114;SDS011;10715;48.546;9.896;2023-02-28T15:13:12;9.30;;;7.90;;
21114;SDS011;10715;48.546;9.896;2023-02-28T15:20:49;13.33;;;6.57;;
21114;SDS011;10715;48.546;9.896;2023-02-28T15:23:16;10.70;;;7.97;;
21114;SDS011;10715;48.546;9.896;2023-02-28T15:25:44;7.83;;;6.77;;
21114;SDS011;10715;48.546;9.896;2023-02-28T15:28:14;11.87;;;6.60;;
21114;SDS011;10715;48.546;9.896;2023-02-28T15:30:54;8.50;;;6.43;;
21114;SDS011;10715;48.546;9.896;2023-02-28T15:33:28;6.47;;;5.50;;
21114;SDS011;10715;48.546;9.896;2023-02-28T15:36:05;14.50;;;8.90;;
21114;SDS011;10715;48.546;9.896;2023-02-28T15:38:37;8.83;;;6.03;;
21114;SDS011;10715;48.546;9.896;2023-02-28T15:41:02;8.17;;;6.80;;
21114;SDS011;10715;48.546;9.896;2023-02-28T15:43:36;8.67;;;6.20;;
21114;SDS011;10715;48.546;9.896;2023-02-28T15:48:42;9.57;;;6.57;;
21114;SDS011;10715;48.546;9.896;2023-02-28T15:51:30;8.50;;;6.50;;
21114;SDS011;10715;48.546;9.896;2023-02-28T15:54:08;9.13;;;6.67;;
21114;SDS011;10715;48.546;9.896;2023-02-28T15:56:43;11.90;;;7.60;;
21114;SDS011;10715;48.546;9.896;2023-02-28T15:59:18;17.83;;;7.20;;
21114;SDS011;10715;48.546;9.896;2023-02-28T16:01:46;11.43;;;7.77;;
21114;SDS011;10715;48.546;9.896;2023-02-28T16:04:15;13.67;;;7.40;;
21114;SDS011;10715;48.546;9.896;2023-02-28T16:09:22;12.13;;;7.67;;
21114;SDS011;10715;48.546;9.896;2023-02-28T16:11:49;10.67;;;6.47;;
21114;SDS011;10715;48.546;9.896;2023-02-28T16:14:18;9.93;;;6.20;;
21114;SDS011;10715;48.546;9.896;2023-02-28T16:16:50;11.27;;;6.17;;
21114;SDS011;10715;48.546;9.896;2023-02-28T16:19:18;11.87;;;8.10;;
21114;SDS011;10715;48.546;9.896;2023-02-28T16:21:44;12.17;;;7.87;;
21114;SDS011;10715;48.546;9.896;2023-02-28T16:24:10;11.87;;;7.37;;
21114;SDS011;10715;48.546;9.896;2023-02-28T16:26:36;10.27;;;5.77;;
21114;SDS011;10715;48.546;9.896;2023-02-28T16:29:04;9.70;;;6.17;;
21114;SDS011;10715;48.546;9.896;2023-02-28T16:31:33;9.53;;;8.77;;
21114;SDS011;10715;48.546;9.896;2023-02-28T16:34:01;11.40;;;8.03;;
21114;SDS011;10715;48.546;9.896;2023-02-28T16:36:28;7.27;;;5.30;;
21114;SDS011;10715;48.546;9.896;2023-02-28T16:38:55;13.93;;;7.87;;
21114;SDS011;10715;48.546;9.896;2023-02-28T16:41:22;12.27;;;7.40;;
21114;SDS011;10715;48.546;9.896;2023-02-28T16:43:51;13.33;;;7.47;;
21114;SDS011;10715;48.546;9.896;2023-02-28T16:46:23;12.40;;;7.60;;
21114;SDS011;10715;48.546;9.896;2023-02-28T16:48:50;11.30;;;6.53;;
21114;SDS011;10715;48.546;9.896;2023-02-28T16:51:16;12.80;;;7.87;;
21114;SDS011;10715;48.546;9.896;2023-02-28T16:53:43;19.07;;;11.37;;
21114;SDS011;10715;48.546;9.896;2023-02-28T16:56:19;9.70;;;7.17;;
21114;SDS011;10715;48.546;9.896;2023-02-28T16:58:47;22.23;;;14.57;;
21114;SDS011;10715;48.546;9.896;2023-02-28T17:01:14;19.33;;;12.23;;
21114;SDS011;10715;48.546;9.896;2023-02-28T17:03:40;18.23;;;11.27;;
21114;SDS011;10715;48.546;9.896;2023-02-28T17:06:20;14.63;;;9.83;;
21114;SDS011;10715;48.546;9.896;2023-02-28T17:08:52;11.00;;;8.17;;
21114;SDS011;10715;48.546;9.896;2023-02-28T17:11:18;9.87;;;7.53;;
21114;SDS011;10715;48.546;9.896;2023-02-28T17:13:44;24.17;;;13.60;;
21114;SDS011;10715;48.546;9.896;2023-02-28T17:16:29;19.50;;;13.00;;
21114;SDS011;10715;48.546;9.896;2023-02-28T17:18:58;55.57;;;29.53;;
21114;SDS011;10715;48.546;9.896;2023-02-28T17:21:28;90.10;;;47.67;;
21114;SDS011;10715;48.546;9.896;2023-02-28T17:23:54;79.83;;;39.87;;
21114;SDS011;10715;48.546;9.896;2023-02-28T17:26:21;82.37;;;37.30;;
21114;SDS011;10715;48.546;9.896;2023-02-28T17:28:49;135.43;;;60.87;;
21114;SDS011;10715;48.546;9.896;2023-02-28T17:31:21;123.27;;;50.37;;
21114;SDS011;10715;48.546;9.896;2023-02-28T17:33:47;89.60;;;39.50;;
21114;SDS011;10715;48.546;9.896;2023-02-28T17:36:18;74.97;;;32.90;;
21114;SDS011;10715;48.546;9.896;2023-02-28T17:38:48;60.20;;;28.40;;
21114;SDS011;10715;48.546;9.896;2023-02-28T17:41:14;76.67;;;35.80;;
21114;SDS011;10715;48.546;9.896;2023-02-28T17:43:40;64.83;;;32.77;;
21114;SDS011;10715;48.546;9.896;2023-02-28T17:46:08;53.27;;;28.00;;
21114;SDS011;10715;48.546;9.896;2023-02-28T17:48:41;35.93;;;18.60;;